Aviation Digital Data Service (ADDS)

Output produced by METARs form (1634 UTC 24 April 2014)
found at http://aviationweather.gov/adds/metars/
 
KRIC 241120Z 2412/2512 33006KT P6SM SKC 
     FM241400 34011KT P6SM SCT150 
     FM242000 32005KT P6SM SCT250 
     FM250000 VRB02KT P6SM BKN250